Time;durP1;ratioP1;P1;durP2;ratioP2;P2;SDS_P1;SDS_P2;PMS_P1;PMS_P2;Temp;Humidity;BMP_temperature;BMP_pressure;BME280_temperature;BME280_humidity;BME280_pressure;Samples;Min_cycle;Max_cycle;Signal;HPM_P1;HPM_P2
2024/01/11 00:01:46;;;;;;;79.60;33.20;;;;;;;-8.85;89.07;102515.63;4991144;28;20451;-80
2024/01/11 00:04:12;;;;;;;74.27;32.90;;;;;;;-8.86;88.87;102512.16;4992505;28;20200;-81
2024/01/11 00:06:41;;;;;;;80.53;31.10;;;;;;;-8.86;89.00;102517.31;4990231;28;20246;-81
2024/01/11 00:09:08;;;;;;;76.67;31.47;;;;;;;-8.87;88.92;102512.06;4992576;28;20943;-80
2024/01/11 00:11:34;;;;;;;78.90;32.27;;;;;;;-8.87;88.99;102507.78;4992907;28;21229;-81
2024/01/11 00:14:01;;;;;;;83.57;29.87;;;;;;;-8.87;89.31;102505.22;4994098;28;20472;-81
2024/01/11 00:16:29;;;;;;;71.50;29.10;;;;;;;-8.89;89.27;102512.00;4995258;28;20222;-81
2024/01/11 00:18:55;;;;;;;67.80;30.07;;;;;;;-8.90;88.98;102507.66;4991503;28;20220;-80
2024/01/11 00:21:22;;;;;;;71.93;29.83;;;;;;;-8.91;89.21;102505.88;4992403;28;20215;-81
2024/01/11 00:23:49;;;;;;;75.07;29.53;;;;;;;-8.93;89.26;102504.94;4996245;28;20298;-80
2024/01/11 00:26:16;;;;;;;83.20;30.93;;;;;;;-8.95;89.24;102519.47;4988674;28;20463;-81
2024/01/11 00:28:42;;;;;;;70.87;30.30;;;;;;;-8.99;90.06;102515.00;4997546;28;20533;-81
2024/01/11 00:31:09;;;;;;;77.30;31.10;;;;;;;-8.99;89.86;102515.00;4991712;28;20231;-81
2024/01/11 00:33:37;;;;;;;74.23;31.90;;;;;;;-8.99;90.41;102517.56;4993574;28;20443;-81
2024/01/11 00:36:04;;;;;;;80.27;30.87;;;;;;;-8.98;90.18;102518.47;4995020;28;20467;-80
2024/01/11 00:38:31;;;;;;;74.10;30.87;;;;;;;-8.98;90.58;102515.88;4995485;28;20219;-81
2024/01/11 00:40:57;;;;;;;76.57;31.20;;;;;;;-8.97;90.88;102520.22;4998193;28;20207;-80
2024/01/11 00:43:24;;;;;;;74.67;31.80;;;;;;;-8.99;90.52;102515.00;4997095;28;20447;-81
2024/01/11 00:45:50;;;;;;;77.07;30.50;;;;;;;-9.00;90.50;102509.75;4991156;28;20506;-80
2024/01/11 00:48:16;;;;;;;67.93;30.67;;;;;;;-9.02;90.55;102512.28;4990208;28;20455;-81
2024/01/11 00:50:44;;;;;;;72.47;30.47;;;;;;;-9.02;90.34;102511.38;4991209;28;20487;-80
2024/01/11 00:53:14;;;;;;;76.93;30.60;;;;;;;-9.04;90.31;102515.59;4994919;28;20212;-80
2024/01/11 00:55:40;;;;;;;74.83;31.27;;;;;;;-9.06;90.13;102506.88;4994834;28;20323;-80
2024/01/11 00:58:07;;;;;;;76.87;31.17;;;;;;;-9.06;90.38;102509.47;4994925;28;20211;-81
2024/01/11 01:00:33;;;;;;;80.30;30.30;;;;;;;-9.08;90.95;102511.09;4997136;28;20664;-80
2024/01/11 01:03:00;;;;;;;75.83;29.20;;;;;;;-9.08;91.15;102505.94;4995102;28;20221;-81
2024/01/11 01:05:26;;;;;;;77.53;29.47;;;;;;;-9.10;90.74;102487.78;4990382;28;20486;-80
2024/01/11 01:07:54;;;;;;;69.07;29.67;;;;;;;-9.11;90.95;102494.66;4994337;28;20214;-80
2024/01/11 01:10:20;;;;;;;78.03;30.30;;;;;;;-9.11;91.14;102504.09;4997549;28;20501;-80
2024/01/11 01:12:47;;;;;;;74.43;29.93;;;;;;;-9.15;91.14;102505.66;4993914;28;20469;-80
2024/01/11 01:15:14;;;;;;;83.87;32.00;;;;;;;-9.17;91.62;102504.72;4999293;28;20311;-80
2024/01/11 01:17:41;;;;;;;75.10;28.90;;;;;;;-9.16;91.45;102509.06;4994678;28;20204;-81
2024/01/11 01:20:08;;;;;;;73.83;30.10;;;;;;;-9.16;91.59;102523.66;4997943;28;20513;-79
2024/01/11 01:22:35;;;;;;;72.70;29.83;;;;;;;-9.19;91.66;102516.66;4999827;28;20814;-80
2024/01/11 01:25:03;;;;;;;72.00;30.57;;;;;;;-9.19;91.75;102514.06;4994624;28;20227;-80
2024/01/11 01:27:30;;;;;;;85.73;32.07;;;;;;;-9.18;91.31;102510.69;4998440;28;20861;-80
2024/01/11 01:29:56;;;;;;;75.27;31.03;;;;;;;-9.19;92.15;102498.59;4996554;28;20737;-81
2024/01/11 01:32:23;;;;;;;75.37;31.60;;;;;;;-9.19;92.06;102500.28;4996037;28;20946;-80
2024/01/11 01:34:49;;;;;;;74.70;30.40;;;;;;;-9.20;92.20;102504.56;4999125;28;20446;-80
2024/01/11 01:37:16;;;;;;;79.47;31.37;;;;;;;-9.22;92.10;102494.97;4991873;28;20454;-80
2024/01/11 01:39:42;;;;;;;76.83;29.80;;;;;;;-9.20;92.26;102495.94;4994251;28;20931;-81
2024/01/11 01:42:10;;;;;;;75.30;29.63;;;;;;;-9.23;92.15;102488.06;4995050;28;20442;-81
2024/01/11 01:44:40;;;;;;;70.93;29.67;;;;;;;-9.22;92.46;102487.25;4990742;28;20462;-81
2024/01/11 01:47:07;;;;;;;66.00;28.57;;;;;;;-9.22;92.63;102500.16;5001802;28;20490;-81
2024/01/11 01:49:34;;;;;;;65.57;27.67;;;;;;;-9.24;92.79;102500.06;4994414;28;20447;-81
2024/01/11 01:52:01;;;;;;;67.70;28.87;;;;;;;-9.24;93.08;102487.16;4997241;28;20442;-81
2024/01/11 01:54:28;;;;;;;71.60;29.90;;;;;;;-9.25;92.79;102503.47;4997331;28;20291;-81
2024/01/11 01:56:55;;;;;;;71.70;28.30;;;;;;;-9.25;93.23;102502.56;4995273;28;20231;-81
2024/01/11 01:59:26;;;;;;;74.07;28.23;;;;;;;-9.24;93.37;102509.50;4998007;28;20211;-81
2024/01/11 02:01:53;;;;;;;74.30;27.60;;;;;;;-9.25;93.36;102503.47;4996651;28;20442;-81
2024/01/11 02:04:20;;;;;;;64.47;27.93;;;;;;;-9.25;92.95;102494.84;4994667;28;20458;-81
2024/01/11 02:06:48;;;;;;;66.57;27.57;;;;;;;-9.26;92.91;102495.66;4994748;28;20247;-81
2024/01/11 02:09:15;;;;;;;76.53;27.57;;;;;;;-9.26;93.01;102493.06;4994505;28;20442;-81
2024/01/11 02:11:42;;;;;;;65.37;26.77;;;;;;;-9.27;92.82;102515.41;4996237;28;21041;-81
2024/01/11 02:14:08;;;;;;;64.60;27.20;;;;;;;-9.28;93.46;102528.22;4995860;28;21255;-81
2024/01/11 02:16:36;;;;;;;76.53;28.97;;;;;;;-9.31;93.34;102518.66;4994059;28;20466;-81
2024/01/11 02:19:03;;;;;;;68.33;27.57;;;;;;;-9.30;93.58;102522.09;4995489;28;20447;-80
2024/01/11 02:21:34;;;;;;;66.93;26.60;;;;;;;-9.29;93.29;102526.47;5000567;28;20845;-80
2024/01/11 02:24:07;;;;;;;71.03;27.17;;;;;;;-9.29;93.43;102516.13;5001091;28;20438;-81
2024/01/11 02:26:34;;;;;;;66.43;26.13;;;;;;;-9.29;93.59;102513.56;4992642;28;20498;-80
2024/01/11 02:29:01;;;;;;;63.40;25.03;;;;;;;-9.29;93.67;102506.72;4998113;28;20466;-81
2024/01/11 02:31:27;;;;;;;67.80;27.53;;;;;;;-9.31;93.37;102503.16;4993219;28;20494;-80
2024/01/11 02:33:55;;;;;;;59.40;26.47;;;;;;;-9.30;93.65;102504.06;4993513;28;20440;-81
2024/01/11 02:36:22;;;;;;;61.87;26.33;;;;;;;-9.30;93.92;102499.78;4989637;28;20227;-81
2024/01/11 02:38:49;;;;;;;63.47;26.33;;;;;;;-9.30;93.72;102509.22;4998950;28;20468;-81
2024/01/11 02:41:19;;;;;;;55.80;25.93;;;;;;;-9.32;94.09;102511.75;4991705;28;20467;-81
2024/01/11 02:43:48;;;;;;;60.40;24.80;;;;;;;-9.31;93.80;102507.44;4994732;28;20454;-80
2024/01/11 02:46:15;;;;;;;61.80;25.73;;;;;;;-9.32;93.21;102500.53;4996023;28;20545;-80
2024/01/11 02:48:42;;;;;;;57.70;23.87;;;;;;;-9.33;93.71;102499.66;4996294;28;20199;-81
2024/01/11 02:51:08;;;;;;;62.40;23.20;;;;;;;-9.33;93.79;102491.91;4997738;28;20633;-79
2024/01/11 02:53:35;;;;;;;52.83;22.40;;;;;;;-9.34;93.48;102487.56;4990814;28;20452;-81
2024/01/11 02:56:01;;;;;;;54.57;23.47;;;;;;;-9.35;94.26;102488.38;4995203;28;20462;-82
2024/01/11 02:58:29;;;;;;;53.23;20.87;;;;;;;-9.34;94.00;102482.41;4991783;28;20451;-81
2024/01/11 03:00:55;;;;;;;52.43;21.53;;;;;;;-9.34;93.74;102477.25;4994737;28;20451;-81
2024/01/11 03:03:22;;;;;;;64.20;24.33;;;;;;;-9.34;94.11;102479.84;4986341;28;20454;-81
2024/01/11 03:05:48;;;;;;;50.27;22.10;;;;;;;-9.36;94.57;102468.56;4996963;28;20471;-81
2024/01/11 03:08:15;;;;;;;47.50;21.13;;;;;;;-9.37;93.88;102464.22;4993288;28;20452;-81
2024/01/11 03:10:41;;;;;;;47.20;19.80;;;;;;;-9.37;93.81;102469.38;4993038;28;20500;-80
2024/01/11 03:13:08;;;;;;;44.47;19.57;;;;;;;-9.38;94.19;102465.00;5001233;28;20443;-82
2024/01/11 03:15:36;;;;;;;53.93;21.43;;;;;;;-9.37;94.46;102473.63;4991726;28;21164;-82
2024/01/11 03:18:02;;;;;;;45.60;19.90;;;;;;;-9.37;94.45;102471.06;4988248;28;20464;-81
2024/01/11 03:20:29;;;;;;;51.67;19.93;;;;;;;-9.37;94.22;102471.06;4995022;28;20439;-81
2024/01/11 03:22:55;;;;;;;47.30;19.53;;;;;;;-9.39;94.22;102473.56;4996123;28;20439;-81
2024/01/11 03:25:22;;;;;;;46.90;19.67;;;;;;;-9.40;94.63;102471.78;4991850;28;20470;-81
2024/01/11 03:27:48;;;;;;;41.87;19.07;;;;;;;-9.41;94.25;102479.47;4993243;28;20438;-81
2024/01/11 03:30:16;;;;;;;47.73;20.23;;;;;;;-9.41;94.56;102484.63;4994452;28;20494;-80
2024/01/11 03:32:44;;;;;;;48.60;20.47;;;;;;;-9.42;93.78;102483.72;4990718;28;20521;-80
2024/01/11 03:35:10;;;;;;;52.87;21.07;;;;;;;-9.41;93.87;102476.88;4994033;28;20490;-81
2024/01/11 03:37:37;;;;;;;49.00;19.97;;;;;;;-9.43;94.11;102479.38;4993163;28;20827;-80
2024/01/11 03:40:04;;;;;;;43.47;18.97;;;;;;;-9.43;94.17;102471.66;4992798;28;20475;-81
2024/01/11 03:42:31;;;;;;;44.07;19.07;;;;;;;-9.46;94.14;102462.06;4990069;28;20213;-81
2024/01/11 03:44:57;;;;;;;47.60;20.03;;;;;;;-9.46;93.96;102468.91;4993495;28;20443;-81
2024/01/11 03:47:24;;;;;;;44.33;18.77;;;;;;;-9.47;93.94;102469.72;4993659;28;20477;-80
2024/01/11 03:49:52;;;;;;;43.70;19.63;;;;;;;-9.47;93.94;102462.00;4997265;28;20470;-81
2024/01/11 03:52:18;;;;;;;43.97;19.43;;;;;;;-9.47;93.92;102475.78;4990608;28;20845;-81
2024/01/11 03:54:45;;;;;;;42.63;18.03;;;;;;;-9.49;94.12;102476.50;4993418;28;20498;-81
2024/01/11 03:57:11;;;;;;;39.23;17.60;;;;;;;-9.50;94.11;102491.13;4994372;28;20462;-81
2024/01/11 03:59:38;;;;;;;46.43;19.37;;;;;;;-9.50;93.59;102490.25;4995086;28;20457;-81
2024/01/11 04:02:04;;;;;;;45.30;19.90;;;;;;;-9.52;94.13;102503.06;4997114;28;20454;-81
2024/01/11 04:04:31;;;;;;;43.13;20.03;;;;;;;-9.52;94.35;102497.03;4991844;28;20450;-81
2024/01/11 04:06:59;;;;;;;43.17;18.50;;;;;;;-9.53;94.38;102500.41;4993868;28;20467;-81
2024/01/11 04:09:25;;;;;;;40.23;18.83;;;;;;;-9.52;93.87;102500.50;4991671;28;20451;-81
2024/01/11 04:11:52;;;;;;;49.53;20.37;;;;;;;-9.53;93.97;102501.31;4991555;28;20489;-81
2024/01/11 04:14:18;;;;;;;51.07;19.77;;;;;;;-9.53;93.79;102498.72;4994950;28;20463;-81
2024/01/11 04:16:45;;;;;;;51.40;21.67;;;;;;;-9.52;94.54;102497.03;4994097;28;20466;-81
2024/01/11 04:19:11;;;;;;;50.23;20.80;;;;;;;-9.53;94.09;102496.13;4994578;28;20448;-80
2024/01/11 04:21:38;;;;;;;47.27;21.13;;;;;;;-9.53;94.06;102498.72;4992486;28;20478;-81
2024/01/11 04:24:07;;;;;;;49.37;21.57;;;;;;;-9.53;94.24;102479.78;4992138;28;20481;-81
2024/01/11 04:26:34;;;;;;;52.33;23.80;;;;;;;-9.51;94.27;102489.38;4992436;28;20926;-80
2024/01/11 04:29:00;;;;;;;56.43;24.57;;;;;;;-9.51;94.23;102489.38;4993333;28;20450;-81
2024/01/11 04:31:27;;;;;;;49.17;21.93;;;;;;;-9.52;94.14;102477.28;4991779;28;20861;-80
2024/01/11 04:33:52;;;;;;;54.67;21.40;;;;;;;-9.51;94.41;102476.47;4992904;28;20446;-81
2024/01/11 04:36:19;;;;;;;54.30;22.23;;;;;;;-9.50;94.52;102465.34;4994645;28;20479;-81
2024/01/11 04:38:45;;;;;;;55.87;22.23;;;;;;;-9.50;94.00;102467.03;4991821;28;20208;-81
2024/01/11 04:41:14;;;;;;;57.50;22.87;;;;;;;-9.49;94.12;102455.88;4993160;28;20447;-81
2024/01/11 04:43:41;;;;;;;55.47;21.37;;;;;;;-9.49;94.32;102442.97;4993334;28;20439;-81
2024/01/11 04:46:15;;;;;;;51.23;21.67;;;;;;;-9.49;94.12;102422.34;4992174;28;20459;-80
2024/01/11 04:48:42;;;;;;;47.70;21.67;;;;;;;-9.49;94.18;102432.66;4989425;28;20582;-80
2024/01/11 04:51:08;;;;;;;48.43;21.77;;;;;;;-9.51;94.42;102454.94;4990909;28;20485;-81
2024/01/11 04:53:37;;;;;;;53.97;21.40;;;;;;;-9.52;94.48;102471.22;4993784;28;21811;-81
2024/01/11 04:56:04;;;;;;;53.80;20.80;;;;;;;-9.53;94.46;102477.19;4997198;28;20481;-81
2024/01/11 04:58:32;;;;;;;50.53;19.93;;;;;;;-9.53;95.23;102480.66;4992113;28;20454;-81
2024/01/11 05:00:58;;;;;;;46.10;20.87;;;;;;;-9.53;94.87;102472.03;4994271;28;20439;-81
2024/01/11 05:03:25;;;;;;;41.93;18.97;;;;;;;-9.54;95.12;102484.06;4993255;28;20458;-80
2024/01/11 05:05:52;;;;;;;41.13;19.63;;;;;;;-9.53;95.21;102479.78;4985703;28;20478;-80
2024/01/11 05:08:18;;;;;;;54.97;21.37;;;;;;;-9.53;95.33;102484.94;4991906;28;20458;-80
2024/01/11 05:10:45;;;;;;;47.30;21.10;;;;;;;-9.54;95.08;102486.63;4990139;28;20915;-80
2024/01/11 05:13:11;;;;;;;48.30;20.37;;;;;;;-9.53;95.22;102497.84;4998506;28;20508;-81
2024/01/11 05:15:39;;;;;;;64.47;23.07;;;;;;;-9.54;95.64;102504.69;4992012;28;20469;-81
2024/01/11 05:18:05;;;;;;;49.67;21.47;;;;;;;-9.54;95.45;102504.69;4999481;28;20438;-81
2024/01/11 05:20:32;;;;;;;57.97;23.00;;;;;;;-9.54;95.39;102524.44;4992797;28;20439;-80
2024/01/11 05:23:01;;;;;;;52.67;21.80;;;;;;;-9.54;95.21;102530.47;4991309;28;20447;-81
2024/01/11 05:25:28;;;;;;;55.87;22.10;;;;;;;-9.54;95.24;102524.44;4992967;28;20505;-80
2024/01/11 05:27:54;;;;;;;57.10;22.63;;;;;;;-9.53;95.27;102526.22;4994350;28;20451;-81
2024/01/11 05:30:21;;;;;;;52.73;21.40;;;;;;;-9.53;95.10;102533.94;4993146;28;20216;-80
2024/01/11 05:32:49;;;;;;;49.23;22.07;;;;;;;-9.54;95.06;102538.22;4994087;28;20849;-81
2024/01/11 05:35:15;;;;;;;57.50;23.13;;;;;;;-9.53;95.26;102539.09;4987350;28;20475;-81
2024/01/11 05:37:42;;;;;;;58.03;24.77;;;;;;;-9.54;95.07;102543.38;4988088;28;20829;-81
2024/01/11 05:40:09;;;;;;;54.37;23.33;;;;;;;-9.54;95.07;102534.75;4989815;28;21043;-81
2024/01/11 05:42:37;;;;;;;63.40;24.47;;;;;;;-9.54;95.37;102524.44;4992112;28;20453;-81
2024/01/11 05:45:04;;;;;;;61.30;24.20;;;;;;;-9.52;95.50;102520.25;4996749;28;20501;-81
2024/01/11 05:47:31;;;;;;;70.43;25.70;;;;;;;-9.52;95.40;102507.34;4995702;28;20451;-81
2024/01/11 05:49:58;;;;;;;57.23;23.87;;;;;;;-9.51;95.82;102489.38;4992498;28;20450;-81
2024/01/11 05:52:25;;;;;;;60.83;25.33;;;;;;;-9.49;95.83;102491.97;4995735;28;20977;-82
2024/01/11 05:54:51;;;;;;;64.77;26.07;;;;;;;-9.48;95.70;102509.22;4994371;28;20455;-82
2024/01/11 05:57:18;;;;;;;60.93;25.80;;;;;;;-9.48;95.91;102493.75;4992388;28;20466;-81
2024/01/11 05:59:45;;;;;;;63.40;24.53;;;;;;;-9.47;96.19;102495.53;4994489;28;20762;-81
2024/01/11 06:02:12;;;;;;;60.03;26.33;;;;;;;-9.45;96.65;102499.06;4995895;28;20565;-81
2024/01/11 06:04:38;;;;;;;62.67;25.13;;;;;;;-9.47;96.57;102517.03;4996331;28;20462;-81
2024/01/11 06:07:06;;;;;;;62.77;25.57;;;;;;;-9.46;96.88;102515.34;4993897;28;20496;-81
2024/01/11 06:09:32;;;;;;;65.27;26.97;;;;;;;-9.44;96.22;102516.31;4994871;28;20448;-78
2024/01/11 06:12:00;;;;;;;67.07;25.97;;;;;;;-9.44;97.18;102506.00;4993890;28;20490;-80
2024/01/11 06:14:27;;;;;;;69.43;25.80;;;;;;;-9.42;97.08;102496.63;4996163;28;20498;-79
2024/01/11 06:16:53;;;;;;;68.90;26.43;;;;;;;-9.42;97.04;102483.72;4992130;28;20474;-79
2024/01/11 06:19:20;;;;;;;64.47;25.10;;;;;;;-9.41;97.14;102472.59;4984076;28;20979;-79
2024/01/11 06:21:47;;;;;;;59.33;24.60;;;;;;;-9.40;97.41;102495.00;4993827;28;20955;-80
2024/01/11 06:24:14;;;;;;;63.77;24.27;;;;;;;-9.39;97.39;102501.94;4992367;28;20450;-80
2024/01/11 06:26:41;;;;;;;60.47;24.97;;;;;;;-9.39;96.97;102504.53;4992196;28;20470;-80
2024/01/11 06:29:07;;;;;;;55.90;22.80;;;;;;;-9.38;97.51;102492.50;4988927;28;20451;-81
2024/01/11 06:31:34;;;;;;;58.57;23.07;;;;;;;-9.35;97.74;102498.69;4994519;28;20608;-80
2024/01/11 06:34:01;;;;;;;57.80;24.87;;;;;;;-9.33;97.43;102489.34;4989645;28;20449;-81
2024/01/11 06:36:28;;;;;;;55.43;22.83;;;;;;;-9.31;97.99;102482.53;4991512;28;20474;-80
2024/01/11 06:38:54;;;;;;;60.90;24.57;;;;;;;-9.28;98.44;102482.69;4986221;28;20486;-80
2024/01/11 06:41:22;;;;;;;69.83;26.23;;;;;;;-9.25;98.20;102492.25;4989392;28;20463;-80
2024/01/11 06:43:48;;;;;;;71.20;29.80;;;;;;;-9.20;98.48;102504.56;4996529;28;20464;-80
2024/01/11 06:46:20;;;;;;;72.73;29.37;;;;;;;-9.15;98.82;102505.66;4989766;28;20475;-80
2024/01/11 06:48:47;;;;;;;75.03;28.60;;;;;;;-9.08;99.07;102498.19;4998941;28;20504;-81
2024/01/11 06:51:15;;;;;;;68.13;27.77;;;;;;;-9.03;99.87;102500.19;4988853;28;20452;-80
2024/01/11 06:53:41;;;;;;;72.37;28.50;;;;;;;-8.96;99.82;102515.16;4998599;28;20455;-81
2024/01/11 06:56:14;;;;;;;77.10;28.17;;;;;;;-8.87;100.00;102506.91;4990182;28;20230;-80
2024/01/11 06:58:43;;;;;;;71.13;27.63;;;;;;;-8.81;100.00;102496.88;4991292;28;20195;-80
2024/01/11 07:01:10;;;;;;;71.33;29.47;;;;;;;-8.73;100.00;102502.34;4988499;28;20204;-80
2024/01/11 07:03:37;;;;;;;65.63;26.73;;;;;;;-8.68;100.00;102503.44;4996220;28;20683;-81
2024/01/11 07:06:04;;;;;;;69.90;28.30;;;;;;;-8.63;100.00;102497.69;5000855;28;20470;-80
2024/01/11 07:08:30;;;;;;;65.37;29.70;;;;;;;-8.59;100.00;102506.41;4997125;28;20207;-80
2024/01/11 07:10:57;;;;;;;76.63;28.80;;;;;;;-8.55;100.00;102518.66;4996027;28;20523;-80
2024/01/11 07:13:24;;;;;;;72.40;27.20;;;;;;;-8.51;100.00;102503.38;5000770;28;20231;-81
2024/01/11 07:15:52;;;;;;;70.00;27.10;;;;;;;-8.47;100.00;102494.94;4990862;28;20236;-81
2024/01/11 07:18:18;;;;;;;67.47;27.40;;;;;;;-8.44;100.00;102499.38;4993924;28;20216;-81
2024/01/11 07:20:45;;;;;;;64.80;26.80;;;;;;;-8.41;100.00;102486.56;4992042;28;20212;-81
2024/01/11 07:23:11;;;;;;;64.97;26.27;;;;;;;-8.35;100.00;102504.03;4993074;28;20204;-81
2024/01/11 07:25:39;;;;;;;72.37;27.13;;;;;;;-8.34;100.00;102516.13;4997073;28;20224;-80
2024/01/11 07:28:05;;;;;;;67.40;26.80;;;;;;;-8.31;100.00;102517.13;4994180;28;20455;-81
2024/01/11 07:30:32;;;;;;;75.20;27.63;;;;;;;-8.30;100.00;102505.97;4994822;28;20204;-81
2024/01/11 07:33:00;;;;;;;65.90;27.57;;;;;;;-8.27;100.00;102506.09;4989301;28;20235;-81
2024/01/11 07:35:26;;;;;;;71.47;28.90;;;;;;;-8.26;100.00;102525.09;4986646;28;20231;-81
2024/01/11 07:37:52;;;;;;;71.23;27.13;;;;;;;-8.24;100.00;102529.47;4989275;28;20208;-81
2024/01/11 07:40:19;;;;;;;68.73;26.17;;;;;;;-8.21;100.00;102533.91;4990929;28;20553;-80
2024/01/11 07:42:46;;;;;;;64.97;26.10;;;;;;;-8.21;100.00;102534.78;4992557;28;20621;-80
2024/01/11 07:45:13;;;;;;;61.47;25.93;;;;;;;-8.20;100.00;102546.00;4994154;28;20266;-81
2024/01/11 07:47:40;;;;;;;60.77;25.60;;;;;;;-8.19;100.00;102560.69;4991825;28;20306;-81
2024/01/11 07:50:10;;;;;;;62.97;25.63;;;;;;;-8.18;100.00;102570.22;4995543;28;20386;-80
2024/01/11 07:52:37;;;;;;;60.60;23.80;;;;;;;-8.17;99.96;102569.41;4985083;28;20224;-81
2024/01/11 07:55:07;;;;;;;56.33;24.73;;;;;;;-8.18;100.00;102583.13;4992302;28;20208;-81
2024/01/11 07:57:34;;;;;;;61.60;25.47;;;;;;;-8.20;99.97;102572.72;4992033;28;20210;-81
2024/01/11 08:00:00;;;;;;;56.10;23.57;;;;;;;-8.19;100.00;102566.75;4996918;28;20210;-80
2024/01/11 08:02:27;;;;;;;61.30;24.93;;;;;;;-8.16;100.00;102568.59;4991272;28;20208;-80
2024/01/11 08:04:53;;;;;;;52.17;22.50;;;;;;;-8.12;100.00;102563.63;4995851;28;20680;-81
2024/01/11 08:07:21;;;;;;;46.03;20.93;;;;;;;-8.08;99.93;102554.31;4993265;28;20250;-81
2024/01/11 08:09:48;;;;;;;46.10;21.53;;;;;;;-8.05;100.00;102557.00;4983037;28;20216;-80
2024/01/11 08:12:14;;;;;;;55.83;22.73;;;;;;;-8.02;100.00;102554.53;4993249;28;20227;-81
2024/01/11 08:14:41;;;;;;;45.37;20.80;;;;;;;-8.00;100.00;102555.50;4987479;28;20211;-80
2024/01/11 08:17:08;;;;;;;54.40;22.93;;;;;;;-8.01;100.00;102553.72;4990710;28;20227;-80
2024/01/11 08:19:35;;;;;;;46.70;20.70;;;;;;;-7.99;100.00;102553.78;4991699;28;20558;-81
2024/01/11 08:22:02;;;;;;;45.73;20.60;;;;;;;-7.98;100.00;102556.44;4992693;28;20199;-80
2024/01/11 08:24:30;;;;;;;49.00;20.53;;;;;;;-7.94;100.00;102554.88;4990669;28;20218;-80
2024/01/11 08:26:57;;;;;;;59.43;22.27;;;;;;;-7.92;99.87;102554.13;4989393;28;20272;-81
2024/01/11 08:29:23;;;;;;;54.23;23.43;;;;;;;-7.90;100.00;102547.31;4993736;28;20244;-80
2024/01/11 08:31:50;;;;;;;55.63;23.10;;;;;;;-7.88;100.00;102545.66;4987006;28;20726;-80
2024/01/11 08:34:17;;;;;;;57.63;23.63;;;;;;;-7.85;99.97;102561.31;4987704;28;20207;-81
2024/01/11 08:36:44;;;;;;;55.37;22.97;;;;;;;-7.82;99.95;102556.25;4990486;28;20220;-79
2024/01/11 08:39:12;;;;;;;58.57;22.83;;;;;;;-7.78;100.00;102558.16;4994636;28;20204;-80
2024/01/11 08:41:40;;;;;;;52.17;21.20;;;;;;;-7.76;100.00;102551.34;4988782;28;20239;-80
2024/01/11 08:44:06;;;;;;;51.77;22.33;;;;;;;-7.74;100.00;102560.06;4986994;28;20208;-79
2024/01/11 08:46:34;;;;;;;53.70;22.10;;;;;;;-7.68;100.00;102555.94;4991420;28;20234;-80
2024/01/11 08:49:03;;;;;;;58.50;22.73;;;;;;;-7.65;100.00;102537.97;4985485;28;20214;-81
2024/01/11 08:51:29;;;;;;;57.07;23.23;;;;;;;-7.61;100.00;102535.56;4982168;28;20211;-81
2024/01/11 08:53:56;;;;;;;52.67;23.27;;;;;;;-7.56;100.00;102538.34;4981625;28;20232;-80
2024/01/11 08:56:23;;;;;;;55.77;23.17;;;;;;;-7.53;100.00;102543.66;4986154;28;20223;-80
2024/01/11 08:58:51;;;;;;;55.17;22.93;;;;;;;-7.48;100.00;102536.94;4982057;28;20207;-81
2024/01/11 09:01:17;;;;;;;53.00;22.03;;;;;;;-7.44;100.00;102544.91;4986631;28;20237;-80
2024/01/11 09:03:44;;;;;;;49.30;21.27;;;;;;;-7.38;100.00;102545.16;4981224;28;20294;-82
2024/01/11 09:06:12;;;;;;;47.97;20.87;;;;;;;-7.30;100.00;102557.50;4983809;28;20235;-81
2024/01/11 09:08:38;;;;;;;48.43;20.70;;;;;;;-7.24;100.00;102560.34;4979226;28;20204;-80
2024/01/11 09:11:05;;;;;;;45.63;19.93;;;;;;;-7.20;100.00;102555.34;4982638;28;20207;-80
2024/01/11 09:13:31;;;;;;;42.70;19.87;;;;;;;-7.15;100.00;102558.09;4983281;28;20228;-80
2024/01/11 09:15:59;;;;;;;37.43;18.60;;;;;;;-7.11;100.00;102566.03;4984972;28;20227;-80
2024/01/11 09:18:26;;;;;;;51.97;20.73;;;;;;;-7.05;100.00;102558.53;4983991;28;20221;-81
2024/01/11 09:20:52;;;;;;;43.57;19.90;;;;;;;-6.96;100.00;102545.03;4982594;28;20212;-80
2024/01/11 09:23:19;;;;;;;48.67;20.63;;;;;;;-6.91;100.00;102543.50;4981488;28;20656;-80
2024/01/11 09:25:45;;;;;;;43.37;19.83;;;;;;;-6.84;100.00;102536.84;4987809;28;20219;-82
2024/01/11 09:28:12;;;;;;;39.60;17.60;;;;;;;-6.77;100.00;102546.59;4990103;28;20272;-81
2024/01/11 09:30:38;;;;;;;43.63;18.80;;;;;;;-6.73;100.00;102553.69;4988024;28;20271;-81
2024/01/11 09:33:06;;;;;;;44.70;19.37;;;;;;;-6.68;100.00;102560.81;4987833;28;20232;-80
2024/01/11 09:35:32;;;;;;;38.00;18.53;;;;;;;-6.66;100.00;102574.69;4987968;28;20298;-80
2024/01/11 09:38:00;;;;;;;37.33;19.23;;;;;;;-6.55;100.00;102590.63;4985719;28;20212;-80
2024/01/11 09:40:27;;;;;;;44.97;19.33;;;;;;;-6.48;100.00;102592.66;4988286;28;20215;-79
2024/01/11 09:42:54;;;;;;;38.73;17.47;;;;;;;-6.40;100.00;102573.06;4987295;28;20303;-80
2024/01/11 09:45:20;;;;;;;38.13;18.37;;;;;;;-6.34;100.00;102575.88;4981178;28;20350;-81
2024/01/11 09:47:48;;;;;;;33.03;15.40;;;;;;;-6.31;100.00;102586.38;4988960;28;20826;-81
2024/01/11 09:50:17;;;;;;;35.60;16.60;;;;;;;-6.27;100.00;102584.78;4986353;28;20219;-79
2024/01/11 09:52:47;;;;;;;36.33;16.10;;;;;;;-6.21;100.00;102565.94;4986101;28;20268;-80
2024/01/11 09:55:14;;;;;;;34.63;16.07;;;;;;;-6.21;100.00;102560.75;4986306;28;20231;-80
2024/01/11 09:57:45;;;;;;;35.73;15.20;;;;;;;-6.18;100.00;102566.06;4984199;28;20229;-81
2024/01/11 10:00:18;;;;;;;32.60;13.70;;;;;;;-6.15;100.00;102556.69;4991976;28;20211;-81
2024/01/11 10:02:46;;;;;;;36.80;15.30;;;;;;;-6.08;100.00;102547.38;4987079;28;20740;-81
2024/01/11 10:05:13;;;;;;;29.13;14.07;;;;;;;-6.03;100.00;102543.25;4986919;28;20224;-81
2024/01/11 10:07:41;;;;;;;34.30;13.27;;;;;;;-6.00;100.00;102551.13;4991196;28;20660;-82
2024/01/11 10:10:09;;;;;;;29.80;12.77;;;;;;;-5.96;100.00;102553.88;4987971;28;20573;-82
2024/01/11 10:12:35;;;;;;;26.93;13.13;;;;;;;-5.92;100.00;102551.41;4991131;28;20261;-80
2024/01/11 10:15:09;;;;;;;32.60;12.87;;;;;;;-5.89;100.00;102542.00;4985318;28;20212;-81
2024/01/11 10:17:36;;;;;;;25.93;11.20;;;;;;;-5.84;100.00;102530.03;4991243;28;20224;-81
2024/01/11 10:20:03;;;;;;;28.67;12.80;;;;;;;-5.81;100.00;102535.31;4984738;28;20214;-81
2024/01/11 10:22:29;;;;;;;27.83;13.07;;;;;;;-5.75;100.00;102535.53;4988542;28;20215;-82
2024/01/11 10:25:11;;;;;;;29.80;13.63;;;;;;;-5.67;100.00;102531.47;4982314;28;20214;-81
2024/01/11 10:27:38;;;;;;;30.60;12.60;;;;;;;-5.62;100.00;102529.91;4981674;28;20556;-81
2024/01/11 10:30:07;;;;;;;32.53;14.13;;;;;;;-5.57;100.00;102529.19;4987174;28;20561;-81
2024/01/11 10:32:34;;;;;;;36.27;14.87;;;;;;;-5.55;100.00;102527.53;4988552;28;20314;-80
2024/01/11 10:35:03;;;;;;;34.93;14.63;;;;;;;-5.52;100.00;102522.41;4986258;28;20201;-82
2024/01/11 10:37:30;;;;;;;32.93;15.03;;;;;;;-5.47;100.00;102515.66;4982081;28;20275;-82
2024/01/11 10:39:59;;;;;;;41.33;16.97;;;;;;;-5.42;100.00;102519.28;4990296;28;20211;-81
2024/01/11 10:42:32;;;;;;;33.40;14.67;;;;;;;-5.35;100.00;102529.91;4985920;28;20652;-82
2024/01/11 10:45:00;;;;;;;38.57;16.60;;;;;;;-5.32;100.00;102523.91;4991558;28;20275;-79
2024/01/11 10:47:31;;;;;;;31.73;13.57;;;;;;;-5.31;100.00;102530.88;4982533;28;20228;-81
2024/01/11 10:49:59;;;;;;;24.27;11.23;;;;;;;-5.24;100.00;102532.84;4981415;28;20625;-81
2024/01/11 10:52:43;;;;;;;25.43;11.37;;;;;;;-5.18;100.00;102532.13;4982948;28;20208;-82
2024/01/11 10:55:10;;;;;;;23.07;10.10;;;;;;;-5.13;100.00;102536.66;4983224;28;20230;-82
2024/01/11 10:57:39;;;;;;;22.97;10.73;;;;;;;-5.10;100.00;102536.75;4985310;28;20224;-81
2024/01/11 11:00:07;;;;;;;23.77;10.20;;;;;;;-5.06;100.00;102541.19;4983743;28;20207;-82
2024/01/11 11:02:35;;;;;;;23.57;10.30;;;;;;;-5.03;100.00;102533.50;4988868;28;20277;-79
2024/01/11 11:05:04;;;;;;;21.10;10.77;;;;;;;-4.99;100.00;102535.34;4986304;28;20208;-80
2024/01/11 11:07:31;;;;;;;25.07;12.13;;;;;;;-4.94;100.00;102528.56;4988562;28;20780;-82